Data for 10/10/2014

Time Sea-Level Adjusted Pressure Absolute Pressure Temperature Relative Humidity Dew Point   
(mb) (inHg) (mb) (inHg) (C) (F) (%) (C) (F)
00:05 1021 30.15 850 25.1 8.1 46.6 69 2.8 37.1
00:10 1021 30.15 850 25.1 8 46.4 69 2.7 36.9
00:15 1021 30.15 850 25.1 8 46.5 69 2.7 36.9
00:20 1021 30.15 850 25.1 8 46.4 69 2.8 37
00:25 1021 30.15 850 25.1 8 46.4 70 2.8 37.1
00:30 1021 30.15 850 25.1 8 46.4 70 2.8 37.1
00:35 1021 30.15 850 25.1 8 46.4 70 2.8 37.1
00:40 1021 30.15 850 25.1 8 46.3 70 2.8 37.1
00:45 1021 30.15 850 25.1 8 46.4 70 2.8 37.1
00:50 1021 30.15 850 25.1 8.1 46.6 69 2.8 37.1
00:55 1021 30.15 850 25.1 8.2 46.8 69 2.9 37.3
01:00 1021 30.15 850 25.1 8.4 47.1 69 3 37.3
01:05 1021 30.15 850 25.1 8.4 47.1 69 3 37.4
01:10 1021 30.15 850 25.1 8.4 47.2 69 3 37.4
01:15 1021 30.15 850 25.1 8.4 47.1 69 3 37.5
01:20 1021 30.15 850 25.1 8.3 46.9 70 3.1 37.6
01:25 1021 30.15 850 25.1 8.1 46.7 70 3 37.4
01:30 1021 30.15 850 25.1 8.1 46.5 70 3 37.3
01:35 1021 30.15 850 25.1 8 46.3 70 2.9 37.2
01:40 1021 30.15 850 25.1 7.9 46.2 70 2.8 37.1
01:45 1021 30.15 850 25.1 7.9 46.2 70 2.8 37
01:50 1021 30.15 850 25.1 7.9 46.3 70 2.8 37.1
01:55 1021 30.15 850 25.1 7.9 46.3 70 2.8 37.1
02:00 1021 30.15 850 25.1 8 46.4 70 2.9 37.2
02:05 1021 30.15 850 25.1 8.1 46.5 69 2.9 37.1
02:10 1021 30.15 850 25.1 8.1 46.5 70 2.9 37.3
02:15 1021 30.15 850 25.1 8.1 46.5 70 3 37.3
02:20 1021 30.15 850 25.1 8 46.3 71 3 37.3
02:25 1021 30.15 850 25.1 8 46.4 70 2.9 37.2
02:30 1021 30.15 850 25.1 8.1 46.5 70 3 37.4
02:35 1021 30.15 850 25.1 8 46.4 71 3 37.4
02:40 1021 30.15 850 25.1 7.8 46.1 72 3.1 37.6
02:45 1021 30.15 850 25.1 7.6 45.7 72 2.9 37.3
02:50 1021 30.15 850 25.1 7.8 46 72 3 37.4
02:55 1021 30.15 850 25.1 8 46.4 71 3.1 37.5
03:00 1021 30.15 850 25.1 8 46.5 71 3.1 37.6
03:05 1021 30.15 850 25.1 8 46.4 71 3.1 37.7
03:10 1021 30.15 850 25.1 7.9 46.2 72 3.1 37.6
03:15 1021 30.15 850 25.1 7.9 46.3 72 3.1 37.7
03:20 1021 30.15 850 25.1 7.9 46.2 72 3.2 37.7
03:25 1021 30.15 850 25.1 7.8 46 73 3.2 37.7
03:30 1021 30.15 850 25.1 7.9 46.2 72 3.2 37.7
03:35 1021 30.15 850 25.1 7.9 46.1 73 3.2 37.8
03:40 1021 30.15 850 25.1 7.8 46.1 73 3.2 37.8
03:45 1021 30.15 850 25.1 7.8 46 74 3.4 38.1
03:50 1021 30.15 850 25.1 7.7 45.8 74 3.4 38.1
03:55 1021 30.15 850 25.1 7.6 45.7 74 3.4 38
04:00 1021 30.15 850 25.1 7.6 45.7 75 3.5 38.2
04:05 1021 30.15 850 25.1 7.4 45.3 77 3.6 38.5
04:10 1021 30.15 850 25.1 7.1 44.7 77 3.4 38.1
04:15 1021 30.15 850 25.1 7.2 44.9 76 3.3 37.9
04:20 1021 30.15 850 25.1 7.1 44.9 77 3.4 38.1
04:25 1021 30.15 850 25.1 7.1 44.8 77 3.4 38.1
04:30 1021 30.15 850 25.1 7.3 45.2 76 3.4 38.1
04:35 1021 30.15 850 25.1 7.4 45.4 76 3.5 38.3
04:40 1021 30.15 850 25.1 7.4 45.4 76 3.5 38.3
04:45 1021 30.15 850 25.1 7.5 45.5 75 3.4 38.2
04:50 1021 30.15 850 25.1 7.5 45.5 75 3.4 38.1
04:55 1021 30.15 850 25.1 7.4 45.3 76 3.4 38.2
05:00 1021 30.15 850 25.1 7.3 45.1 76 3.3 37.9
05:05 1021 30.15 850 25.1 7.4 45.2 75 3.3 37.9
05:10 1021 30.15 850 25.1 7.3 45.1 76 3.4 38.1
05:15 1021 30.15 850 25.1 6.9 44.5 78 3.4 38.1
05:20 1021 30.15 850 25.1 6.7 44.1 79 3.3 37.9
05:25 1021 30.15 850 25.1 6.6 43.8 79 3.3 37.9
05:30 1021 30.15 850 25.1 6.5 43.7 80 3.3 37.9
05:35 1021 30.15 850 25.1 6.4 43.5 80 3.3 37.9
05:40 1021 30.15 850 25.1 6.3 43.4 80 3.2 37.7
05:45 1021 30.15 850 25.1 6.4 43.5 80 3.1 37.6
05:50 1021 30.15 850 25.1 6.5 43.7 79 3.2 37.7
05:55 1021 30.15 850 25.1 6.7 44 79 3.3 37.9
06:00 1021 30.15 850 25.1 6.7 44.1 78 3.1 37.7
06:05 1021 30.15 850 25.1 6.8 44.3 78 3.3 38
06:10 1021 30.15 850 25.1 6.8 44.2 79 3.3 38
06:15 1021 30.15 850 25.1 6.7 44.1 79 3.3 37.9
06:20 1021 30.15 850 25.1 6.7 44 79 3.3 38
06:25 1021 30.15 850 25.1 6.6 43.8 79 3.2 37.8
06:30 1021 30.15 850 25.1 6.7 44 80 3.4 38.2
06:35 1021 30.15 850 25.1 6.7 44 79 3.3 37.9
06:40 1021 30.15 850 25.1 6.6 43.9 79 3.3 37.9
06:45 1021 30.15 850 25.1 6.6 43.8 81 3.6 38.4
06:50 1021 30.15 850 25.1 6.5 43.6 81 3.5 38.3
06:55 1021 30.15 850 25.1 6.3 43.3 81 3.3 38
07:00 1021 30.15 851 25.13 6.3 43.3 81 3.3 38
07:05 1021 30.15 851 25.13 6.2 43.1 82 3.3 37.9
07:10 1021 30.15 851 25.13 6 42.7 83 3.2 37.8
07:15 1021 30.15 851 25.13 5.9 42.5 83 3.1 37.6
07:20 1021 30.15 851 25.13 6 42.7 83 3.2 37.8
07:25 1022 30.18 851 25.13 5.9 42.7 82 3.2 37.7
07:30 1021 30.15 851 25.13 5.7 42.3 84 3.2 37.8
07:35 1022 30.18 851 25.13 5.8 42.5 83 3.1 37.6
07:40 1022 30.18 851 25.13 6.2 43.2 81 3.3 37.9
07:45 1022 30.18 851 25.13 6.5 43.6 81 3.4 38.1
07:50 1022 30.18 851 25.13 6.7 44.1 79 3.4 38
07:55 1022 30.18 851 25.13 7.1 44.8 78 3.6 38.4
08:00 1022 30.18 851 25.13 7 44.6 79 3.5 38.4
08:05 1022 30.18 851 25.13 6.8 44.2 80 3.6 38.4
08:10 1022 30.18 851 25.13 6.5 43.7 81 3.5 38.3
08:15 1022 30.18 851 25.13 6.4 43.6 82 3.6 38.4
08:20 1022 30.18 851 25.13 6.6 43.8 82 3.7 38.6
08:25 1022 30.18 851 25.13 6.7 44.1 81 3.8 38.8
08:30 1022 30.18 851 25.13 6.9 44.4 81 3.8 38.8
08:35 1022 30.18 851 25.13 6.9 44.5 83 4.2 39.5
08:40 1022 30.18 851 25.13 6.9 44.4 82 4 39.2
08:45 1022 30.18 851 25.13 7 44.6 82 4.2 39.5
08:50 1022 30.18 851 25.13 7.2 45 82 4.3 39.8
08:55 1022 30.18 851 25.13 7.3 45.2 83 4.7 40.4
09:00 1022 30.18 851 25.13 7.5 45.5 81 4.5 40.1
09:05 1021 30.15 851 25.13 7.6 45.6 81 4.5 40.1
09:10 1022 30.18 851 25.13 7.7 45.9 79 4.2 39.6
09:15 1022 30.18 851 25.13 8 46.3 77 4.2 39.5
09:20 1021 30.15 851 25.13 8.1 46.5 78 4.4 40
09:25 1021 30.15 851 25.13 8.3 46.9 78 4.6 40.3
09:30 1021 30.15 851 25.13 8.4 47.2 76 4.5 40.1
09:35 1021 30.15 851 25.13 8.7 47.7 74 4.4 39.9
09:40 1021 30.15 851 25.13 8.6 47.5 75 4.4 39.9
09:45 1021 30.15 851 25.13 8.9 48.1 75 4.8 40.6
09:50 1021 30.15 851 25.13 9.3 48.8 72 4.7 40.4
09:55 1021 30.15 851 25.13 9.7 49.5 71 4.7 40.4
10:00 1021 30.15 851 25.13 9.9 49.9 72 5.1 41.2
10:05 1021 30.15 850 25.1 10.3 50.5 72 5.4 41.7
10:10 1021 30.15 850 25.1 11.1 52 67 5.4 41.6
10:15 1021 30.15 850 25.1 11 51.7 72 6.2 43.2
10:20 1021 30.15 850 25.1 11.4 52.6 67 5.5 41.9
10:25 1021 30.15 850 25.1 11.4 52.6 64 4.9 40.9
10:30 1021 30.15 850 25.1 11.4 52.6 64 4.8 40.7
10:35 1021 30.15 850 25.1 11.4 52.6 63 4.8 40.6
10:40 1021 30.15 850 25.1 12.5 54.4 58 4.5 40.2
10:45 1021 30.15 850 25.1 12.8 55 61 5.6 42
10:50 1021 30.15 850 25.1 13 55.4 58 5 41
10:55 1021 30.15 850 25.1 13.5 56.3 55 4.7 40.5
11:00 1021 30.15 850 25.1 14 57.2 54 4.8 40.7
11:05 1021 30.15 850 25.1 14 57.2 55 5.1 41.1
11:10 1021 30.15 850 25.1 14 57.1 54 4.8 40.6
11:15 1021 30.15 850 25.1 13.7 56.6 53 4.4 40
11:20 1021 30.15 850 25.1 14.2 57.6 51 4.4 39.9
11:25 1021 30.15 850 25.1 14.9 58.8 49 4.4 39.8
11:30 1021 30.15 850 25.1 14.9 58.9 50 4.7 40.4
11:35 1021 30.15 850 25.1 14.9 58.8 51 4.9 40.8
11:40 1021 30.15 850 25.1 15.3 59.5 49 4.8 40.6
11:45 1021 30.15 850 25.1 15.1 59.1 50 4.8 40.6
11:50 1021 30.15 850 25.1 15.4 59.8 48 4.4 39.9
11:55 1021 30.15 850 25.1 15.8 60.5 48 4.9 40.8
12:00 1020 30.12 850 25.1 15.7 60.2 46 4.2 39.6
12:05 1020 30.12 850 25.1 16.3 61.3 46 4.7 40.5
12:10 1020 30.12 850 25.1 16.4 61.5 45 4.7 40.4
12:15 1020 30.12 850 25.1 16.3 61.3 47 4.9 40.9
12:20 1020 30.12 849 25.07 16.3 61.3 47 4.9 40.8
12:25 1020 30.12 849 25.07 16.4 61.5 46 5 40.9
12:30 1020 30.12 849 25.07 16.7 62.1 46 5.3 41.6
12:35 1020 30.12 849 25.07 17.1 62.8 42 4.4 39.8
12:40 1020 30.12 849 25.07 17.7 63.9 42 4.6 40.3
12:45 1020 30.12 849 25.07 17.5 63.5 43 4.8 40.7
12:50 1020 30.12 849 25.07 17.3 63.1 45 5.4 41.7
12:55 1020 30.12 849 25.07 16.7 62 45 4.9 40.8
13:00 1020 30.12 849 25.07 17.1 62.7 43 4.7 40.4
13:05 1020 30.12 849 25.07 17.3 63.1 44 5.2 41.3
13:10 1020 30.12 849 25.07 17.3 63.1 44 4.9 40.8
13:15 1020 30.12 849 25.07 16.9 62.5 45 5.1 41.1
13:20 1020 30.12 849 25.07 17.5 63.5 42 4.7 40.5
13:25 1019 30.09 849 25.07 18.1 64.5 40 4.5 40.1
13:30 1019 30.09 849 25.07 18.4 65.1 40 4.6 40.3
13:35 1019 30.09 849 25.07 18.7 65.7 39 4.6 40.2
13:40 1019 30.09 849 25.07 19 66.2 39 4.9 40.8
13:45 1019 30.09 848 25.04 19 66.2 39 5 41
13:50 1019 30.09 848 25.04 19.2 66.6 39 5.2 41.4
13:55 1019 30.09 848 25.04 19 66.2 40 5.2 41.4
14:00 1019 30.09 848 25.04 18.8 65.8 38 4.4 39.8
14:05 1019 30.09 848 25.04 19.2 66.6 40 5.4 41.7
14:10 1019 30.09 848 25.04 18.6 65.4 40 4.8 40.7
14:15 1019 30.09 848 25.04 18 64.4 40 4.2 39.6
14:20 1019 30.09 848 25.04 18 64.3 39 3.9 39.1
14:25 1019 30.09 848 25.04 18.9 66 38 4.3 39.8
14:30 1019 30.09 848 25.04 18.6 65.4 38 4.2 39.6
14:35 1019 30.09 848 25.04 18.9 66.1 38 4.5 40.2
14:40 1019 30.09 848 25.04 19.1 66.4 39 4.9 40.8
14:45 1019 30.09 848 25.04 19.2 66.5 38 4.7 40.5
14:50 1019 30.09 848 25.04 18.9 65.9 39 4.6 40.4
14:55 1019 30.09 848 25.04 19.1 66.3 36 3.6 38.5
15:00 1019 30.09 848 25.04 19.3 66.7 35 3.6 38.4
15:05 1019 30.09 848 25.04 19.5 67.1 33 3.1 37.6
15:10 1019 30.09 848 25.04 19.6 67.3 35 3.9 39.1
15:15 1019 30.09 848 25.04 19.5 67 38 4.9 40.9
15:20 1019 30.09 848 25.04 19 66.2 37 4.1 39.3
15:25 1019 30.09 848 25.04 19 66.2 36 3.9 39.1
15:30 1018 30.06 848 25.04 19.3 66.7 35 3.8 38.8
15:35 1018 30.06 848 25.04 19.1 66.4 36 3.9 39
15:40 1018 30.06 848 25.04 19.2 66.5 37 4.2 39.6
15:45 1018 30.06 848 25.04 19 66.1 37 4.1 39.3
15:50 1018 30.06 848 25.04 18.8 65.9 37 4 39.3
15:55 1018 30.06 848 25.04 19 66.3 36 3.7 38.7
16:00 1018 30.06 847 25.01 18.5 65.3 37 3.8 38.9
16:05 1018 30.06 847 25.01 18.7 65.7 36 3.5 38.2
16:10 1018 30.06 847 25.01 18.6 65.5 37 3.6 38.5
16:15 1018 30.06 847 25.01 18.6 65.6 37 3.7 38.7
16:20 1018 30.06 847 25.01 18.7 65.6 37 3.8 38.8
16:25 1018 30.06 847 25.01 18.3 64.9 39 4.3 39.8
16:30 1018 30.06 847 25.01 17.9 64.2 39 4 39.1
16:35 1018 30.06 847 25.01 17.8 64.1 38 3.6 38.5
16:40 1018 30.06 847 25.01 18.4 65.2 37 3.5 38.3
16:45 1018 30.06 847 25.01 18.5 65.2 37 3.7 38.7
16:50 1018 30.06 847 25.01 18.4 65.1 37 3.7 38.7
16:55 1018 30.06 847 25.01 18.3 64.9 37 3.5 38.3
17:00 1018 30.06 847 25.01 18 64.4 38 3.8 38.8
17:05 1018 30.06 847 25.01 17.9 64.2 38 3.4 38.1
17:10 1018 30.06 847 25.01 17.4 63.3 43 4.6 40.4
17:15 1018 30.06 847 25.01 16.9 62.5 44 4.8 40.6
17:20 1018 30.06 847 25.01 16.6 61.9 44 4.6 40.2
17:25 1018 30.06 847 25.01 16.5 61.7 45 4.6 40.2
17:30 1018 30.06 847 25.01 16.3 61.4 45 4.5 40.2
17:35 1018 30.06 847 25.01 16.2 61.2 45 4.5 40.1
17:40 1018 30.06 847 25.01 16.1 61 47 5 41
17:45 1018 30.06 847 25.01 15.6 60 51 5.5 41.9
17:50 1018 30.06 847 25.01 14.9 58.8 53 5.5 41.8
17:55 1018 30.06 847 25.01 14.4 57.9 55 5.6 42
18:00 1018 30.06 847 25.01 14.1 57.4 56 5.4 41.8
18:05 1018 30.06 847 25.01 13.7 56.7 58 5.6 42
18:10 1018 30.06 847 25.01 13.2 55.8 59 5.5 41.8
18:15 1018 30.06 847 25.01 12.9 55.2 60 5.3 41.5
18:20 1018 30.06 847 25.01 12.8 55 59 5.1 41.2
18:25 1018 30.06 847 25.01 12.7 54.9 60 5.2 41.3
18:30 1018 30.06 847 25.01 12.5 54.4 62 5.3 41.6
18:35 1018 30.06 847 25.01 12.2 53.9 62 5.2 41.4
18:40 1018 30.06 847 25.01 12 53.6 62 5 41
18:45 1018 30.06 847 25.01 12 53.6 61 4.7 40.5
18:50 1018 30.06 847 25.01 12.1 53.8 59 4.4 39.9
18:55 1018 30.06 847 25.01 12.3 54.1 59 4.7 40.4
19:00 1018 30.06 847 25.01 12.1 53.7 60 4.6 40.3
19:05 1018 30.06 847 25.01 12 53.6 60 4.6 40.3
19:10 1018 30.06 847 25.01 11.9 53.4 59 4.3 39.7
19:15 1018 30.06 847 25.01 12.1 53.7 59 4.3 39.8
19:20 1018 30.06 847 25.01 12.2 54 57 4.1 39.4
19:25 1018 30.06 847 25.01 12.3 54.1 59 4.5 40.1
19:30 1018 30.06 847 25.01 12 53.7 60 4.5 40
19:35 1018 30.06 847 25.01 11.8 53.3 61 4.6 40.2
19:40 1018 30.06 847 25.01 11.7 53.1 60 4.3 39.8
19:45 1018 30.06 847 25.01 11.8 53.3 59 4.1 39.3
19:50 1018 30.06 847 25.01 11.9 53.5 59 4.3 39.7
19:55 1018 30.06 847 25.01 11.8 53.2 60 4.3 39.7
20:00 1018 30.06 847 25.01 11.7 53.1 60 4.3 39.8
20:05 1018 30.06 847 25.01 11.7 53 59 4.1 39.4
20:10 1018 30.06 847 25.01 11.6 53 60 4.1 39.5
20:15 1018 30.06 847 25.01 11.5 52.7 60 3.9 39.1
20:20 1018 30.06 847 25.01 11.5 52.7 60 4.1 39.3
20:25 1018 30.06 847 25.01 11.4 52.4 60 4 39.2
20:30 1018 30.06 847 25.01 11.3 52.3 61 4.1 39.4
20:35 1018 30.06 847 25.01 11.2 52.2 61 4 39.3
20:40 1018 30.06 847 25.01 11.2 52.2 61 4 39.2
20:45 1018 30.06 847 25.01 11.4 52.5 59 3.8 38.8
20:50 1018 30.06 847 25.01 11.5 52.7 59 3.8 38.8
20:55 1018 30.06 848 25.04 11.5 52.7 59 3.9 39.1
21:00 1018 30.06 848 25.04 11.5 52.7 59 3.9 39.1
21:05 1018 30.06 847 25.01 11.4 52.5 59 3.8 38.8
21:10 1018 30.06 847 25.01 11.3 52.3 60 3.8 38.9
21:15 1018 30.06 847 25.01 11.1 52 61 3.8 38.9
21:20 1018 30.06 847 25.01 11 51.8 61 3.7 38.7
21:25 1018 30.06 847 25.01 10.9 51.7 61 3.7 38.7
21:30 1018 30.06 847 25.01 10.9 51.5 61 3.7 38.7
21:35 1018 30.06 847 25.01 10.9 51.6 61 3.8 38.8
21:40 1018 30.06 847 25.01 10.8 51.5 61 3.7 38.7
21:45 1018 30.06 847 25.01 10.7 51.3 61 3.5 38.4
21:50 1018 30.06 847 25.01 10.8 51.5 60 3.4 38.1
21:55 1018 30.06 847 25.01 11 51.8 59 3.5 38.2
22:00 1018 30.06 847 25.01 11 51.9 59 3.4 38.1
22:05 1018 30.06 847 25.01 11.3 52.3 61 4.1 39.4
22:10 1018 30.06 847 25.01 10.8 51.5 64 4.3 39.7
22:15 1018 30.06 847 25.01 10.4 50.6 66 4.4 39.9
22:20 1018 30.06 847 25.01 10.2 50.3 65 3.9 39.1
22:25 1018 30.06 847 25.01 10.2 50.3 66 4.1 39.4
22:30 1018 30.06 847 25.01 9.9 49.9 67 4.2 39.6
22:35 1018 30.06 847 25.01 9.5 49 69 4.1 39.3
22:40 1018 30.06 847 25.01 9.3 48.8 68 3.7 38.7
22:45 1018 30.06 847 25.01 9.4 49 68 3.8 38.8
22:50 1018 30.06 847 25.01 9.5 49.1 68 3.8 38.9
22:55 1018 30.06 847 25.01 9.3 48.8 68 3.8 38.9
23:00 1018 30.06 847 25.01 9 48.3 70 3.8 38.9
23:05 1018 30.06 847 25.01 8.8 47.8 71 3.8 38.8
23:10 1018 30.06 847 25.01 8.6 47.4 71 3.7 38.7
23:15 1018 30.06 847 25.01 8.6 47.4 71 3.6 38.4
23:20 1018 30.06 847 25.01 8.8 47.9 71 3.8 38.8
23:25 1018 30.06 847 25.01 8.8 47.8 71 3.8 38.8
23:30 1018 30.06 847 25.01 8.6 47.6 71 3.8 38.8
23:35 1018 30.06 847 25.01 8.4 47.2 72 3.7 38.7
23:40 1018 30.06 847 25.01 8.2 46.7 73 3.6 38.5
23:45 1018 30.06 847 25.01 8.3 46.9 73 3.7 38.6
23:50 1018 30.06 847 25.01 8.4 47.1 71 3.5 38.2
23:55 1018 30.06 847 25.01 8.8 47.9 68 3.3 37.9
24:00 1018 30.06 847 25.01 9.1 48.4 67 3.4 38.1